createdAt,value
2023-05-05T00:00:27.461Z,80.00
2023-05-05T00:01:29.872Z,80.30
2023-05-05T00:02:32.523Z,80.60
2023-05-05T00:03:37.764Z,80.90
2023-05-05T00:04:40.146Z,81.10
2023-05-05T00:05:42.426Z,81.10
2023-05-05T00:06:44.792Z,81.40
2023-05-05T00:07:47.101Z,81.60
2023-05-05T00:08:49.464Z,81.80
2023-05-05T00:09:51.697Z,82.10
2023-05-05T00:10:54.310Z,82.20
2023-05-05T00:11:56.770Z,82.40
2023-05-05T00:12:59.105Z,82.50
2023-05-05T00:14:01.568Z,82.80
2023-05-05T00:15:04.198Z,83.00
2023-05-05T00:16:06.705Z,83.20
2023-05-05T00:17:09.087Z,83.60
2023-05-05T00:18:12.528Z,83.80
2023-05-05T00:19:14.835Z,84.00
2023-05-05T00:20:17.644Z,84.30
2023-05-05T00:21:19.997Z,84.50
2023-05-05T00:22:22.262Z,84.70
2023-05-05T00:23:24.646Z,85.00
2023-05-05T00:24:26.891Z,85.30
2023-05-05T00:25:29.572Z,85.60
2023-05-05T00:26:31.877Z,85.80
2023-05-05T00:27:34.549Z,86.10
2023-05-05T00:28:36.815Z,86.50
2023-05-05T00:29:39.136Z,86.80
2023-05-05T00:30:41.631Z,87.10
2023-05-05T00:31:45.348Z,87.40
2023-05-05T00:32:49.165Z,87.60
2023-05-05T00:33:51.641Z,87.80
2023-05-05T00:34:53.991Z,88.20
2023-05-05T00:35:56.239Z,89.10
2023-05-05T00:36:58.641Z,88.70
2023-05-05T00:38:01.024Z,88.80
2023-05-05T00:39:03.983Z,89.00
2023-05-05T00:40:07.554Z,89.50
2023-05-05T00:41:10.091Z,89.80
2023-05-05T00:42:12.335Z,90.00
2023-05-05T00:43:14.819Z,90.10
2023-05-05T00:44:17.143Z,90.30
2023-05-05T00:45:20.522Z,90.50
2023-05-05T00:46:27.519Z,90.70
2023-05-05T00:47:29.916Z,90.70
2023-05-05T00:48:33.266Z,90.80
2023-05-05T00:49:36.205Z,91.00
2023-05-05T00:50:38.834Z,91.00
2023-05-05T00:51:41.299Z,91.20
2023-05-05T00:52:43.656Z,91.20
2023-05-05T00:53:46.782Z,91.30
2023-05-05T00:54:49.219Z,91.40
2023-05-05T00:55:52.134Z,91.50
2023-05-05T00:56:54.575Z,91.70
2023-05-05T00:58:01.737Z,91.70
2023-05-05T00:59:04.399Z,91.70
2023-05-05T01:00:09.902Z,91.80
2023-05-05T01:01:12.578Z,92.00
2023-05-05T01:02:14.953Z,92.10
2023-05-05T01:03:17.485Z,92.30
2023-05-05T01:04:19.807Z,92.40
2023-05-05T01:05:23.514Z,92.50
2023-05-05T01:06:53.964Z,92.60
2023-05-05T01:07:59.105Z,92.80
2023-05-05T01:09:39.034Z,92.90
2023-05-05T01:10:46.700Z,93.00
2023-05-05T01:12:05.139Z,93.10
2023-05-05T01:13:32.299Z,93.30
2023-05-05T01:14:40.306Z,93.40
2023-05-05T01:15:54.324Z,93.50
2023-05-05T01:17:00.019Z,93.60
2023-05-05T01:18:13.967Z,94.10
2023-05-05T01:19:53.304Z,94.00
2023-05-05T01:21:16.015Z,94.20
2023-05-05T01:22:22.922Z,94.40
2023-05-05T01:23:54.487Z,94.50
2023-05-05T01:25:11.486Z,94.70
2023-05-05T01:26:58.279Z,94.80
2023-05-05T01:28:17.254Z,94.90
2023-05-05T01:29:48.507Z,95.10
2023-05-05T01:31:11.939Z,95.20
2023-05-05T01:32:16.244Z,95.30
2023-05-05T01:33:24.516Z,95.40
2023-05-05T01:34:33.390Z,95.50
2023-05-05T01:35:43.793Z,95.70
2023-05-05T01:36:55.393Z,95.80
2023-05-05T01:38:17.116Z,96.00
2023-05-05T01:39:20.906Z,96.10
2023-05-05T01:40:27.888Z,96.20
2023-05-05T01:41:38.065Z,96.30
2023-05-05T01:42:43.593Z,96.40
2023-05-05T01:43:50.282Z,96.50
2023-05-05T01:44:54.134Z,96.60
2023-05-05T01:45:59.384Z,96.60
2023-05-05T01:47:02.630Z,96.60
2023-05-05T01:48:06.816Z,96.80
2023-05-05T01:49:11.661Z,96.90
2023-05-05T01:50:16.117Z,97.00
2023-05-05T01:51:22.970Z,97.10
2023-05-05T01:52:27.966Z,97.20
2023-05-05T01:53:32.587Z,97.40
2023-05-05T01:54:35.227Z,97.50
2023-05-05T01:55:39.318Z,97.60
2023-05-05T01:56:43.095Z,97.70
2023-05-05T01:57:47.254Z,97.70
2023-05-05T01:58:50.682Z,97.90
2023-05-05T01:59:54.635Z,97.90
2023-05-05T02:00:58.769Z,97.90
2023-05-05T02:02:02.901Z,97.90
2023-05-05T02:03:08.020Z,98.00
2023-05-05T02:04:11.726Z,98.10
2023-05-05T02:05:16.562Z,98.20
2023-05-05T02:06:21.976Z,98.30
2023-05-05T02:07:25.504Z,98.40
2023-05-05T02:08:30.008Z,98.50
2023-05-05T02:09:32.946Z,98.60
2023-05-05T02:10:36.362Z,98.60
2023-05-05T02:11:39.486Z,98.80
2023-05-05T02:12:44.800Z,98.90
2023-05-05T02:13:48.974Z,99.00
2023-05-05T02:14:53.274Z,99.10
2023-05-05T02:15:57.127Z,99.10
2023-05-05T02:17:01.583Z,99.20
2023-05-05T02:18:06.602Z,99.30
2023-05-05T02:19:09.269Z,99.30
2023-05-05T02:20:14.031Z,99.40
2023-05-05T02:21:18.170Z,99.40
2023-05-05T02:22:20.594Z,99.50
2023-05-05T02:23:22.863Z,99.50
2023-05-05T02:24:26.431Z,99.50
2023-05-05T02:25:55.150Z,99.70
2023-05-05T02:26:59.708Z,99.70
2023-05-05T02:28:03.732Z,99.70
2023-05-05T02:29:10.507Z,99.80
2023-05-05T02:30:16.790Z,99.80
2023-05-05T02:31:23.501Z,99.90
2023-05-05T02:32:39.325Z,99.90
2023-05-05T02:33:44.514Z,99.90
2023-05-05T02:34:49.476Z,99.90
2023-05-05T02:35:54.733Z,99.90
2023-05-05T02:37:03.054Z,99.90
2023-05-05T02:38:17.457Z,99.90
2023-05-05T02:39:30.741Z,99.90
2023-05-05T02:40:35.564Z,99.90
2023-05-05T02:41:41.361Z,99.90
2023-05-05T02:42:54.434Z,99.90
2023-05-05T02:44:02.400Z,99.90
2023-05-05T02:45:13.126Z,99.90
2023-05-05T02:46:18.174Z,99.90
2023-05-05T02:47:22.477Z,99.90
2023-05-05T02:48:27.086Z,99.90
2023-05-05T02:49:30.058Z,99.90
2023-05-05T02:50:35.456Z,99.90
2023-05-05T02:51:47.782Z,99.90
2023-05-05T02:52:57.917Z,99.90
2023-05-05T02:54:01.063Z,99.90
2023-05-05T02:55:04.636Z,99.90
2023-05-05T02:56:34.424Z,99.90
2023-05-05T02:57:42.512Z,99.90
2023-05-05T02:58:52.987Z,99.90
2023-05-05T03:00:06.987Z,99.90
2023-05-05T03:01:25.837Z,99.90
2023-05-05T03:02:35.768Z,99.90
2023-05-05T03:03:44.628Z,99.90
2023-05-05T03:04:54.681Z,99.90
2023-05-05T03:06:18.191Z,99.90
2023-05-05T03:07:28.893Z,99.90
2023-05-05T03:09:06.346Z,99.90
2023-05-05T03:10:12.225Z,99.90
2023-05-05T03:11:40.648Z,99.90
2023-05-05T03:12:49.467Z,99.90
2023-05-05T03:14:07.686Z,99.90
2023-05-05T03:15:10.908Z,99.90
2023-05-05T03:16:15.489Z,99.90
2023-05-05T03:17:19.705Z,99.90
2023-05-05T03:18:24.348Z,99.90
2023-05-05T03:19:35.394Z,99.90
2023-05-05T03:20:40.592Z,99.90
2023-05-05T03:21:45.421Z,99.90
2023-05-05T03:22:48.338Z,99.90
2023-05-05T03:23:51.686Z,99.90
2023-05-05T03:24:56.208Z,99.90
2023-05-05T03:25:59.854Z,99.90
2023-05-05T03:27:06.974Z,99.90
2023-05-05T03:28:14.390Z,99.90
2023-05-05T03:29:17.305Z,99.90
2023-05-05T03:30:20.334Z,99.90
2023-05-05T03:31:25.693Z,99.90
2023-05-05T03:32:31.925Z,99.90
2023-05-05T03:33:34.257Z,99.90
2023-05-05T03:34:37.837Z,99.90
2023-05-05T03:35:41.247Z,99.90
2023-05-05T03:36:45.833Z,99.90
2023-05-05T03:37:50.547Z,99.90
2023-05-05T03:38:53.889Z,99.90
2023-05-05T03:39:57.286Z,99.90
2023-05-05T03:41:05.796Z,99.90
2023-05-05T03:42:08.676Z,99.90
2023-05-05T03:43:11.811Z,99.90
2023-05-05T03:44:14.319Z,99.90
2023-05-05T03:45:17.106Z,99.90
2023-05-05T03:46:19.981Z,99.90
2023-05-05T03:47:24.691Z,99.90
2023-05-05T03:48:28.196Z,99.90
2023-05-05T03:49:30.615Z,99.90
2023-05-05T03:50:33.349Z,99.90
2023-05-05T03:51:36.653Z,99.90
2023-05-05T03:52:39.084Z,99.90
2023-05-05T03:53:41.580Z,99.90
2023-05-05T03:54:46.196Z,99.90
2023-05-05T03:55:48.757Z,99.90
2023-05-05T03:56:51.022Z,99.90
2023-05-05T03:57:53.280Z,99.90
2023-05-05T03:58:55.798Z,99.90
2023-05-05T03:59:58.172Z,99.90
2023-05-05T04:01:00.522Z,99.90
2023-05-05T04:02:02.860Z,99.90
2023-05-05T04:03:05.371Z,99.90
2023-05-05T04:04:09.450Z,99.90
2023-05-05T04:05:11.872Z,99.90
2023-05-05T04:06:14.168Z,99.90
2023-05-05T04:07:16.627Z,99.90
2023-05-05T04:08:19.310Z,99.90
2023-05-05T04:09:21.627Z,99.90
2023-05-05T04:10:24.019Z,99.90
2023-05-05T04:11:26.423Z,99.90
2023-05-05T04:12:29.627Z,99.90
2023-05-05T04:13:32.585Z,99.90
2023-05-05T04:14:35.280Z,99.90
2023-05-05T04:15:37.636Z,99.90
2023-05-05T04:16:40.442Z,99.90
2023-05-05T04:17:42.925Z,99.90
2023-05-05T04:18:45.347Z,99.90
2023-05-05T04:19:47.726Z,99.90
2023-05-05T04:20:50.261Z,99.90
2023-05-05T04:21:53.037Z,99.90
2023-05-05T04:22:55.526Z,99.90
2023-05-05T04:23:58.852Z,99.90
2023-05-05T04:25:01.383Z,99.90
2023-05-05T04:26:04.085Z,99.90
2023-05-05T04:27:06.637Z,99.90
2023-05-05T04:28:09.654Z,99.90
2023-05-05T04:29:12.237Z,99.90
2023-05-05T04:30:15.063Z,99.90
2023-05-05T04:31:17.366Z,99.90
2023-05-05T04:32:20.482Z,99.90
2023-05-05T04:33:23.068Z,99.90
2023-05-05T04:34:25.912Z,99.90
2023-05-05T04:35:28.253Z,99.90
2023-05-05T04:36:30.562Z,99.90
2023-05-05T04:37:32.911Z,99.90
2023-05-05T04:38:35.479Z,99.90
2023-05-05T04:39:38.518Z,99.90
2023-05-05T04:40:41.380Z,99.90
2023-05-05T04:41:44.862Z,99.90
2023-05-05T04:42:47.297Z,99.90
2023-05-05T04:43:49.634Z,99.90
2023-05-05T04:44:51.913Z,99.90
2023-05-05T04:45:55.444Z,99.90
2023-05-05T04:47:01.541Z,99.90
2023-05-05T04:48:05.336Z,99.90
2023-05-05T04:49:09.197Z,99.90
2023-05-05T04:50:11.694Z,99.90
2023-05-05T04:51:14.603Z,99.90
2023-05-05T04:52:16.918Z,99.90
2023-05-05T04:53:19.212Z,99.90
2023-05-05T04:54:22.094Z,99.90
2023-05-05T04:55:24.397Z,99.90
2023-05-05T04:56:27.431Z,99.90
2023-05-05T04:57:30.723Z,99.90
2023-05-05T04:58:33.144Z,99.90
2023-05-05T04:59:35.538Z,99.90
2023-05-05T05:00:38.148Z,99.90
2023-05-05T05:01:41.225Z,99.90
2023-05-05T05:02:43.691Z,99.90
2023-05-05T05:03:46.292Z,99.90
2023-05-05T05:04:48.972Z,99.90
2023-05-05T05:05:51.963Z,99.80
2023-05-05T05:06:55.352Z,99.80
2023-05-05T05:07:59.217Z,99.70
2023-05-05T05:09:01.931Z,99.50
2023-05-05T05:10:05.229Z,99.50
2023-05-05T05:11:07.710Z,99.50
2023-05-05T05:12:09.992Z,99.40
2023-05-05T05:13:13.091Z,99.40
2023-05-05T05:14:15.607Z,99.30
2023-05-05T05:15:17.932Z,99.40
2023-05-05T05:16:20.283Z,99.30
2023-05-05T05:17:23.938Z,98.90
2023-05-05T05:18:26.985Z,98.80
2023-05-05T05:19:29.766Z,98.80
2023-05-05T05:20:32.247Z,98.60
2023-05-05T05:21:34.565Z,98.40
2023-05-05T05:22:38.793Z,98.40
2023-05-05T05:23:44.235Z,98.50
2023-05-05T05:24:47.213Z,98.50
2023-05-05T05:25:49.950Z,98.50
2023-05-05T05:26:54.464Z,98.50
2023-05-05T05:28:08.792Z,98.30
2023-05-05T05:29:13.165Z,98.30
2023-05-05T05:30:16.099Z,98.20
2023-05-05T05:31:18.557Z,98.00
2023-05-05T05:32:21.011Z,97.80
2023-05-05T05:33:24.594Z,97.40
2023-05-05T05:34:27.916Z,97.10
2023-05-05T05:35:31.581Z,96.80
2023-05-05T05:36:34.302Z,96.90
2023-05-05T05:37:36.811Z,96.60
2023-05-05T05:38:39.388Z,96.40
2023-05-05T05:39:43.504Z,96.80
2023-05-05T05:40:46.728Z,97.00
2023-05-05T05:41:49.491Z,97.00
2023-05-05T05:42:51.925Z,96.50
2023-05-05T05:43:54.236Z,95.90
2023-05-05T05:44:58.715Z,95.90
2023-05-05T05:46:01.404Z,95.90
2023-05-05T05:47:04.591Z,95.20
2023-05-05T05:48:06.939Z,95.20
2023-05-05T05:49:09.267Z,95.30
2023-05-05T05:50:11.916Z,95.20
2023-05-05T05:51:14.313Z,95.20
2023-05-05T05:52:17.063Z,95.10
2023-05-05T05:53:19.741Z,94.70
2023-05-05T05:54:22.048Z,94.10
2023-05-05T05:55:24.417Z,93.90
2023-05-05T05:56:27.578Z,93.70
2023-05-05T05:57:30.167Z,93.40
2023-05-05T05:58:32.432Z,93.40
2023-05-05T05:59:34.795Z,92.90
2023-05-05T06:00:37.311Z,92.40
2023-05-05T06:01:43.471Z,91.60
2023-05-05T06:02:46.011Z,91.20
2023-05-05T06:04:06.001Z,91.40
2023-05-05T06:05:09.198Z,90.80
2023-05-05T06:06:11.597Z,91.10
2023-05-05T06:07:14.102Z,91.00
2023-05-05T06:08:16.557Z,90.60
2023-05-05T06:09:23.595Z,90.40
2023-05-05T06:10:28.577Z,90.30
2023-05-05T06:11:37.421Z,90.20
2023-05-05T06:12:39.835Z,90.00
2023-05-05T06:13:42.203Z,88.80
2023-05-05T06:14:44.588Z,88.80
2023-05-05T06:15:46.918Z,89.20
2023-05-05T06:16:50.675Z,89.10
2023-05-05T06:17:55.399Z,88.30
2023-05-05T06:18:58.328Z,88.30
2023-05-05T06:20:00.721Z,89.10
2023-05-05T06:21:03.176Z,89.30
2023-05-05T06:22:06.653Z,89.10
2023-05-05T06:23:09.788Z,89.50
2023-05-05T06:24:16.287Z,89.70
2023-05-05T06:25:18.661Z,89.80
2023-05-05T06:26:21.587Z,90.30
2023-05-05T06:27:24.088Z,89.40
2023-05-05T06:28:26.709Z,89.10
2023-05-05T06:29:29.050Z,89.50
2023-05-05T06:30:31.383Z,89.50
2023-05-05T06:31:33.709Z,89.50
2023-05-05T06:32:36.996Z,89.90
2023-05-05T06:33:39.260Z,89.90
2023-05-05T06:34:42.834Z,89.60
2023-05-05T06:35:50.293Z,90.00
2023-05-05T06:36:55.383Z,89.10
2023-05-05T06:37:57.909Z,87.90
2023-05-05T06:39:00.242Z,86.90
2023-05-05T06:40:03.543Z,86.70
2023-05-05T06:41:05.803Z,86.90
2023-05-05T06:42:08.129Z,86.90
2023-05-05T06:43:10.404Z,87.40
2023-05-05T06:44:17.429Z,87.70
2023-05-05T06:45:19.972Z,86.40
2023-05-05T06:46:22.395Z,86.40
2023-05-05T06:47:25.326Z,85.80
2023-05-05T06:48:27.619Z,85.70
2023-05-05T06:49:30.384Z,85.60
2023-05-05T06:50:32.904Z,85.60
2023-05-05T06:51:35.597Z,85.60
2023-05-05T06:52:37.905Z,85.40
2023-05-05T06:53:40.304Z,84.30
2023-05-05T06:54:43.890Z,84.40
2023-05-05T06:55:47.459Z,85.20
2023-05-05T06:56:49.790Z,85.70
2023-05-05T06:57:53.369Z,85.20
2023-05-05T06:58:55.863Z,84.40
2023-05-05T06:59:59.981Z,84.80
2023-05-05T07:01:02.245Z,84.00
2023-05-05T07:02:04.601Z,84.30
2023-05-05T07:03:06.968Z,84.30
2023-05-05T07:04:09.285Z,84.00
2023-05-05T07:05:11.858Z,83.50
2023-05-05T07:06:14.202Z,83.10
2023-05-05T07:07:16.968Z,82.80
2023-05-05T07:08:19.231Z,82.00
2023-05-05T07:09:21.678Z,82.00
2023-05-05T07:10:24.995Z,81.00
2023-05-05T07:11:27.245Z,81.10
2023-05-05T07:12:32.995Z,81.20
2023-05-05T07:13:35.328Z,81.30
2023-05-05T07:14:37.693Z,80.00
2023-05-05T07:15:46.456Z,79.80
2023-05-05T07:16:49.160Z,80.60
2023-05-05T07:17:51.502Z,80.20
2023-05-05T07:18:53.923Z,79.60
2023-05-05T07:19:56.264Z,80.20
2023-05-05T07:20:58.728Z,79.40
2023-05-05T07:22:01.145Z,79.30
2023-05-05T07:23:03.531Z,79.40
2023-05-05T07:24:06.460Z,79.70
2023-05-05T07:25:09.402Z,78.00
2023-05-05T07:26:12.041Z,77.60
2023-05-05T07:27:14.427Z,78.70
2023-05-05T07:28:17.202Z,79.90
2023-05-05T07:29:19.496Z,79.20
2023-05-05T07:30:22.174Z,78.50
2023-05-05T07:31:27.052Z,78.70
2023-05-05T07:32:29.582Z,78.70
2023-05-05T07:33:31.996Z,78.50
2023-05-05T07:34:34.753Z,78.40
2023-05-05T07:35:37.244Z,78.00
2023-05-05T07:36:40.032Z,77.90
2023-05-05T07:37:42.611Z,77.20
2023-05-05T07:38:45.099Z,76.80
2023-05-05T07:39:48.773Z,76.80
2023-05-05T07:40:51.496Z,76.60
2023-05-05T07:41:53.894Z,75.60
2023-05-05T07:42:56.245Z,75.70
2023-05-05T07:43:58.644Z,75.50
2023-05-05T07:45:01.028Z,75.60
2023-05-05T07:46:03.764Z,74.40
2023-05-05T07:47:06.336Z,73.30
2023-05-05T07:48:08.743Z,73.20
2023-05-05T07:49:11.089Z,73.50
2023-05-05T07:50:13.600Z,72.30
2023-05-05T07:51:17.007Z,72.80
2023-05-05T07:52:21.512Z,72.70
2023-05-05T07:53:29.795Z,72.40
2023-05-05T07:54:32.317Z,70.90
2023-05-05T07:55:34.593Z,71.60
2023-05-05T07:56:36.965Z,71.20
2023-05-05T07:57:39.772Z,70.80
2023-05-05T07:58:42.311Z,70.10
2023-05-05T07:59:44.877Z,69.90
2023-05-05T08:00:47.972Z,70.00
2023-05-05T08:01:50.227Z,70.00
2023-05-05T08:02:52.673Z,69.90
2023-05-05T08:03:55.068Z,70.20
2023-05-05T08:04:57.492Z,70.00
2023-05-05T08:06:07.731Z,69.80
2023-05-05T08:07:10.602Z,68.20
2023-05-05T08:08:13.105Z,68.30
2023-05-05T08:09:15.544Z,69.00
2023-05-05T08:10:17.854Z,69.70
2023-05-05T08:11:21.829Z,70.10
2023-05-05T08:12:24.268Z,67.40
2023-05-05T08:13:26.828Z,68.80
2023-05-05T08:14:29.874Z,69.40
2023-05-05T08:15:32.992Z,70.50
2023-05-05T08:16:35.634Z,71.20
2023-05-05T08:18:04.186Z,71.60
2023-05-05T08:19:14.547Z,69.40
2023-05-05T08:20:28.707Z,67.20
2023-05-05T08:21:31.791Z,66.90
2023-05-05T08:22:34.181Z,67.70
2023-05-05T08:23:37.347Z,67.10
2023-05-05T08:24:39.601Z,67.50
2023-05-05T08:25:41.973Z,68.10
2023-05-05T08:26:44.561Z,66.70
2023-05-05T08:27:46.852Z,66.50
2023-05-05T08:28:49.329Z,65.90
2023-05-05T08:29:51.557Z,65.00
2023-05-05T08:30:53.910Z,64.20
2023-05-05T08:31:56.371Z,64.70
2023-05-05T08:32:59.434Z,65.30
2023-05-05T08:34:02.664Z,65.10
2023-05-05T08:35:06.079Z,64.60
2023-05-05T08:36:08.962Z,64.10
2023-05-05T08:37:11.434Z,63.90
2023-05-05T08:38:14.271Z,62.90
2023-05-05T08:39:16.758Z,62.30
2023-05-05T08:40:25.147Z,61.70
2023-05-05T08:41:28.843Z,62.70
2023-05-05T08:42:37.825Z,63.60
2023-05-05T08:43:46.310Z,60.90
2023-05-05T08:44:48.752Z,61.50
2023-05-05T08:45:51.842Z,61.10
2023-05-05T08:46:54.974Z,61.60
2023-05-05T08:48:02.385Z,63.00
2023-05-05T08:49:05.812Z,62.30
2023-05-05T08:50:11.037Z,62.50
2023-05-05T08:51:20.261Z,62.40
2023-05-05T08:52:24.209Z,59.10
2023-05-05T08:53:55.890Z,59.50
2023-05-05T08:55:06.886Z,58.80
2023-05-05T08:56:10.781Z,58.90
2023-05-05T08:57:19.741Z,59.80
2023-05-05T08:58:23.668Z,59.10
2023-05-05T08:59:30.175Z,60.40
2023-05-05T09:00:33.750Z,60.80
2023-05-05T09:01:37.239Z,59.40
2023-05-05T09:02:40.580Z,59.30
2023-05-05T09:03:44.632Z,59.70
2023-05-05T09:04:46.913Z,60.10
2023-05-05T09:05:51.152Z,60.20
2023-05-05T09:06:54.085Z,58.90
2023-05-05T09:07:56.413Z,58.60
2023-05-05T09:08:59.747Z,59.00
2023-05-05T09:10:05.491Z,58.60
2023-05-05T09:11:07.827Z,59.50
2023-05-05T09:12:10.185Z,59.80
2023-05-05T09:13:13.296Z,59.80
2023-05-05T09:14:15.958Z,59.80
2023-05-05T09:15:18.377Z,59.60
2023-05-05T09:16:20.781Z,59.90
2023-05-05T09:17:25.340Z,60.00
2023-05-05T09:18:28.034Z,59.50
2023-05-05T09:19:30.389Z,59.20
2023-05-05T09:20:37.570Z,60.30
2023-05-05T09:21:48.757Z,60.00
2023-05-05T09:22:51.163Z,60.60
2023-05-05T09:24:08.469Z,60.30
2023-05-05T09:25:16.697Z,60.60
2023-05-05T09:26:18.988Z,59.70
2023-05-05T09:27:23.290Z,59.60
2023-05-05T09:28:26.993Z,58.20
2023-05-05T09:29:29.650Z,58.30
2023-05-05T09:30:32.020Z,58.40
2023-05-05T09:31:36.303Z,57.70
2023-05-05T09:32:49.805Z,57.90
2023-05-05T09:33:52.146Z,58.20
2023-05-05T09:35:01.426Z,58.20
2023-05-05T09:36:03.901Z,58.30
2023-05-05T09:37:06.535Z,57.40
2023-05-05T09:38:12.406Z,58.10
2023-05-05T09:39:19.642Z,58.60
2023-05-05T09:40:22.494Z,59.50
2023-05-05T09:41:42.515Z,59.40
2023-05-05T09:42:45.116Z,57.00
2023-05-05T09:43:52.456Z,58.00
2023-05-05T09:44:55.715Z,58.40
2023-05-05T09:46:08.655Z,57.30
2023-05-05T09:47:26.068Z,57.00
2023-05-05T09:48:32.265Z,56.60
2023-05-05T09:49:36.342Z,56.70
2023-05-05T09:50:43.959Z,57.10
2023-05-05T09:51:47.658Z,57.30
2023-05-05T09:53:00.891Z,57.30
2023-05-05T09:54:03.379Z,57.30
2023-05-05T09:55:06.706Z,57.70
2023-05-05T09:56:09.068Z,57.60
2023-05-05T09:57:33.487Z,56.70
2023-05-05T09:58:36.200Z,57.50
2023-05-05T09:59:39.125Z,57.10
2023-05-05T10:00:41.738Z,56.80
2023-05-05T10:01:44.265Z,57.20
2023-05-05T10:02:46.840Z,57.20
2023-05-05T10:03:54.974Z,57.40
2023-05-05T10:05:11.448Z,57.80
2023-05-05T10:06:13.772Z,57.30
2023-05-05T10:07:25.163Z,57.60
2023-05-05T10:08:30.651Z,58.10
2023-05-05T10:09:33.182Z,56.60
2023-05-05T10:10:35.575Z,56.70
2023-05-05T10:11:39.457Z,57.60
2023-05-05T10:12:42.284Z,57.60
2023-05-05T10:13:44.663Z,57.20
2023-05-05T10:14:46.976Z,57.90
2023-05-05T10:15:51.528Z,57.90
2023-05-05T10:16:56.272Z,57.20
2023-05-05T10:18:07.824Z,57.30
2023-05-05T10:19:14.345Z,56.80
2023-05-05T10:20:18.711Z,57.30
2023-05-05T10:21:21.789Z,56.90
2023-05-05T10:22:25.192Z,57.10
2023-05-05T10:23:47.957Z,57.50
2023-05-05T10:25:01.362Z,56.80
2023-05-05T10:26:07.093Z,57.00
2023-05-05T10:27:29.065Z,57.80
2023-05-05T10:28:42.165Z,57.90
2023-05-05T10:29:59.830Z,57.30
2023-05-05T10:31:12.878Z,58.00
2023-05-05T10:32:51.928Z,57.30
2023-05-05T10:33:58.150Z,57.80
2023-05-05T10:35:02.983Z,59.20
2023-05-05T10:36:07.734Z,58.10
2023-05-05T10:37:11.603Z,57.20
2023-05-05T10:38:14.651Z,57.50
2023-05-05T10:39:19.976Z,57.40
2023-05-05T10:40:22.763Z,56.90
2023-05-05T10:41:26.763Z,56.70
2023-05-05T10:42:29.331Z,57.00
2023-05-05T10:43:32.134Z,56.00
2023-05-05T10:44:34.842Z,55.40
2023-05-05T10:45:38.249Z,56.00
2023-05-05T10:46:41.489Z,56.00
2023-05-05T10:47:47.071Z,55.20
2023-05-05T10:49:26.896Z,54.80
2023-05-05T10:50:38.829Z,56.00
2023-05-05T10:51:52.921Z,55.10
2023-05-05T10:53:21.997Z,55.30
2023-05-05T10:54:51.234Z,55.00
2023-05-05T10:56:08.677Z,54.80
2023-05-05T10:57:12.053Z,54.30
2023-05-05T10:58:43.664Z,54.50
2023-05-05T10:59:54.177Z,54.20
2023-05-05T11:00:56.508Z,54.40
2023-05-05T11:01:58.861Z,53.90
2023-05-05T11:03:16.630Z,55.60
2023-05-05T11:04:23.302Z,55.10
2023-05-05T11:05:25.627Z,54.20
2023-05-05T11:06:28.714Z,52.60
2023-05-05T11:07:31.317Z,51.80
2023-05-05T11:08:35.493Z,51.30
2023-05-05T11:09:54.786Z,52.40
2023-05-05T11:10:57.305Z,51.90
2023-05-05T11:12:04.436Z,52.30
2023-05-05T11:13:09.715Z,52.20
2023-05-05T11:14:22.525Z,51.30
2023-05-05T11:15:27.661Z,51.70
2023-05-05T11:16:48.226Z,52.30
2023-05-05T11:17:50.865Z,51.60
2023-05-05T11:18:53.163Z,50.00
2023-05-05T11:19:56.011Z,49.30
2023-05-05T11:20:58.212Z,48.70
2023-05-05T11:22:01.942Z,48.50
2023-05-05T11:23:04.648Z,49.70
2023-05-05T11:24:31.528Z,50.20
2023-05-05T11:25:37.055Z,49.50
2023-05-05T11:26:51.496Z,49.90
2023-05-05T11:28:12.047Z,49.00
2023-05-05T11:29:14.565Z,50.10
2023-05-05T11:30:17.740Z,49.20
2023-05-05T11:31:20.212Z,49.20
2023-05-05T11:32:22.970Z,49.00
2023-05-05T11:33:30.621Z,49.10
2023-05-05T11:34:32.930Z,49.30
2023-05-05T11:35:54.318Z,49.20
2023-05-05T11:37:05.768Z,49.20
2023-05-05T11:38:09.131Z,50.10
2023-05-05T11:39:32.994Z,48.80
2023-05-05T11:40:37.417Z,48.50
2023-05-05T11:42:09.364Z,49.40
2023-05-05T11:43:12.921Z,48.40
2023-05-05T11:44:19.952Z,48.70
2023-05-05T11:45:24.634Z,49.50
2023-05-05T11:46:27.038Z,50.30
2023-05-05T11:47:31.065Z,49.20
2023-05-05T11:48:47.175Z,50.20
2023-05-05T11:49:49.918Z,50.20
2023-05-05T11:50:52.499Z,49.60
2023-05-05T11:52:03.323Z,49.30
2023-05-05T11:53:07.216Z,47.80
2023-05-05T11:54:11.755Z,46.20
2023-05-05T11:55:20.999Z,46.00
2023-05-05T11:56:23.379Z,47.10
2023-05-05T11:57:30.037Z,48.10
2023-05-05T11:58:32.342Z,47.40
2023-05-05T11:59:37.665Z,46.90
2023-05-05T12:00:40.009Z,47.30
2023-05-05T12:01:42.611Z,47.50
2023-05-05T12:02:45.039Z,47.70
2023-05-05T12:03:47.634Z,48.40
2023-05-05T12:04:50.959Z,48.80
2023-05-05T12:05:56.363Z,49.40
2023-05-05T12:07:01.832Z,48.40
2023-05-05T12:08:04.411Z,48.80
2023-05-05T12:09:14.482Z,48.40
2023-05-05T12:10:23.252Z,48.60
2023-05-05T12:11:25.984Z,48.30
2023-05-05T12:12:39.482Z,48.60
2023-05-05T12:13:42.184Z,49.10
2023-05-05T12:14:52.766Z,48.70
2023-05-05T12:15:55.130Z,48.30
2023-05-05T12:16:58.745Z,48.30
2023-05-05T12:18:03.016Z,48.80
2023-05-05T12:19:07.451Z,47.80
2023-05-05T12:20:11.155Z,47.10
2023-05-05T12:21:17.709Z,47.70
2023-05-05T12:22:25.405Z,48.30
2023-05-05T12:23:30.161Z,49.20
2023-05-05T12:24:32.835Z,47.70
2023-05-05T12:25:36.914Z,48.60
2023-05-05T12:26:39.438Z,48.60
2023-05-05T12:27:51.983Z,48.70
2023-05-05T12:28:54.770Z,48.10
2023-05-05T12:30:10.521Z,47.40
2023-05-05T12:31:13.092Z,47.90
2023-05-05T12:32:20.065Z,48.20
2023-05-05T12:33:22.523Z,47.50
2023-05-05T12:34:25.026Z,48.80
2023-05-05T12:35:27.508Z,48.80
2023-05-05T12:36:30.878Z,48.30
2023-05-05T12:37:33.345Z,48.20
2023-05-05T12:38:36.503Z,48.90
2023-05-05T12:39:39.237Z,48.90
2023-05-05T12:40:50.196Z,48.00
2023-05-05T12:42:02.270Z,46.20
2023-05-05T12:43:04.549Z,45.70
2023-05-05T12:44:06.927Z,46.00
2023-05-05T12:45:17.636Z,46.30
2023-05-05T12:46:20.114Z,47.50
2023-05-05T12:47:32.853Z,47.60
2023-05-05T12:48:38.119Z,47.70
2023-05-05T12:49:51.678Z,47.00
2023-05-05T12:50:54.155Z,47.50
2023-05-05T12:51:57.290Z,47.50
2023-05-05T12:52:59.600Z,45.90
2023-05-05T12:54:05.849Z,46.60
2023-05-05T12:55:09.038Z,46.90
2023-05-05T12:56:31.039Z,47.70
2023-05-05T12:57:33.377Z,48.10
2023-05-05T12:58:52.221Z,48.30
2023-05-05T12:59:54.581Z,48.30
2023-05-05T13:01:10.352Z,47.10
2023-05-05T13:02:12.763Z,47.00
2023-05-05T13:03:21.271Z,47.00
2023-05-05T13:04:28.088Z,46.80
2023-05-05T13:05:36.586Z,47.40
2023-05-05T13:06:46.657Z,48.10
2023-05-05T13:07:52.075Z,47.10
2023-05-05T13:08:57.721Z,47.10
2023-05-05T13:10:09.204Z,47.30
2023-05-05T13:11:12.225Z,47.20
2023-05-05T13:12:16.537Z,48.00
2023-05-05T13:13:18.926Z,47.50
2023-05-05T13:14:22.027Z,47.50
2023-05-05T13:15:25.374Z,47.00
2023-05-05T13:16:28.104Z,47.70
2023-05-05T13:17:31.104Z,47.00
2023-05-05T13:18:51.313Z,46.90
2023-05-05T13:19:53.597Z,47.80
2023-05-05T13:20:56.099Z,47.40
2023-05-05T13:21:59.076Z,47.30
2023-05-05T13:23:01.349Z,47.70
2023-05-05T13:25:09.403Z,48.60
2023-05-05T13:26:13.556Z,46.60
2023-05-05T13:27:16.455Z,47.10
2023-05-05T13:28:18.713Z,46.60
2023-05-05T13:29:21.134Z,47.50
2023-05-05T13:30:23.518Z,46.90
2023-05-05T13:31:25.906Z,47.20
2023-05-05T13:32:28.235Z,47.50
2023-05-05T13:33:33.487Z,47.00
2023-05-05T13:34:35.936Z,46.70
2023-05-05T13:35:38.250Z,46.50
2023-05-05T13:36:40.638Z,46.80
2023-05-05T13:37:44.326Z,47.00
2023-05-05T13:38:46.622Z,47.80
2023-05-05T13:39:48.855Z,47.10
2023-05-05T13:40:51.268Z,46.70
2023-05-05T13:41:53.922Z,46.60
2023-05-05T13:42:56.267Z,46.90
2023-05-05T13:43:58.574Z,46.20
2023-05-05T13:45:01.046Z,46.70
2023-05-05T13:46:18.615Z,47.30
2023-05-05T13:47:21.833Z,47.50
2023-05-05T13:48:24.301Z,47.50
2023-05-05T13:49:27.051Z,47.70
2023-05-05T13:50:29.396Z,47.40
2023-05-05T13:51:31.735Z,47.60
2023-05-05T15:52:22.758Z,49.10
2023-05-05T15:53:26.796Z,49.00
2023-05-05T15:54:29.159Z,48.80
2023-05-05T15:55:31.504Z,48.30
2023-05-05T15:56:33.938Z,48.90
2023-05-05T15:57:36.372Z,48.80
2023-05-05T15:58:38.746Z,48.70
2023-05-05T15:59:41.354Z,49.10
2023-05-05T16:00:43.684Z,49.40
2023-05-05T16:01:46.773Z,48.50
2023-05-05T16:02:49.632Z,48.40
2023-05-05T16:03:52.073Z,49.00